KBNW/BNW METAR and TAF weather

Enter ICAO airport designator
Station Type Date Time Source
KBNW METAR 2020/02/24 23:15 UTC NOAA

KBNW 242315Z AUTO 03013KT 10SM FEW120 03/00 A2985 RMK AO2


Station Type Date Time Source
KBNW Decoded METAR 2020/02/24 23:15 UTC NOAA

Boone Municipal, IA, United States (KBNW) 42-03N 093-51W
Feb 24, 2020 - 06:15 PM EST / 2020.02.24 2315 UTC
Wind: from the NNE (030 degrees) at 15 MPH (13 KT):0
Visibility: 10 mile(s):0
Sky conditions: mostly clear
Temperature: 37 F (3 C)
Dew Point: 32 F (0 C)
Relative Humidity: 80%
Pressure (altimeter): 29.85 in. Hg (1010 hPa)
ob: KBNW 242315Z AUTO 03013KT 10SM FEW120 03/00 A2985 RMK AO2
cycle: 23

Station Type Date Time Source
KBNW TAF UTC NOAA

Error!

Example: see airport list